createdAt,value
2022-08-27T00:04:16.477Z,17.37
2022-08-27T00:09:19.093Z,17.33
2022-08-27T00:14:19.819Z,17.31
2022-08-27T00:19:21.951Z,17.28
2022-08-27T00:24:23.238Z,17.26
2022-08-27T00:29:25.018Z,17.23
2022-08-27T00:34:26.876Z,17.19
2022-08-27T00:39:28.035Z,17.14
2022-08-27T00:44:29.600Z,17.11
2022-08-27T00:49:31.313Z,17.08
2022-08-27T00:54:32.901Z,17.08
2022-08-27T00:59:34.624Z,17.04
2022-08-27T01:04:36.073Z,17.03
2022-08-27T01:09:37.572Z,17.01
2022-08-27T01:14:39.629Z,17.01
2022-08-27T01:19:41.674Z,17.01
2022-08-27T01:24:44.065Z,16.99
2022-08-27T01:29:45.590Z,16.98
2022-08-27T01:34:47.006Z,16.96
2022-08-27T01:39:48.520Z,16.96
2022-08-27T01:44:50.514Z,16.95
2022-08-27T01:49:52.232Z,16.95
2022-08-27T01:54:54.122Z,16.95
2022-08-27T01:59:55.669Z,16.93
2022-08-27T02:04:57.497Z,16.91
2022-08-27T02:09:58.843Z,16.87
2022-08-27T02:15:00.835Z,16.92
2022-08-27T02:20:02.999Z,16.87
2022-08-27T02:25:04.459Z,16.87
2022-08-27T02:30:05.796Z,16.85
2022-08-27T02:35:07.950Z,16.82
2022-08-27T02:40:09.403Z,16.79
2022-08-27T02:45:11.236Z,16.74
2022-08-27T02:50:12.733Z,16.69
2022-08-27T02:55:14.341Z,16.66
2022-08-27T03:00:16.117Z,16.62
2022-08-27T03:05:17.925Z,16.62
2022-08-27T03:10:19.239Z,16.6
2022-08-27T03:15:20.764Z,16.59
2022-08-27T03:20:22.265Z,16.59
2022-08-27T03:25:24.352Z,16.6
2022-08-27T03:30:25.738Z,16.6
2022-08-27T03:35:27.880Z,16.61
2022-08-27T03:40:29.826Z,16.62
2022-08-27T03:45:31.061Z,16.62
2022-08-27T03:50:33.027Z,16.62
2022-08-27T03:55:34.895Z,16.62
2022-08-27T04:00:36.448Z,16.6
2022-08-27T04:05:37.658Z,16.6
2022-08-27T04:10:39.713Z,16.6
2022-08-27T04:15:41.138Z,16.62
2022-08-27T04:20:42.581Z,16.64
2022-08-27T04:25:44.073Z,16.66
2022-08-27T04:30:46.318Z,16.66
2022-08-27T04:35:48.245Z,16.68
2022-08-27T04:40:49.373Z,16.67
2022-08-27T04:45:51.471Z,16.69
2022-08-27T04:50:52.816Z,16.69
2022-08-27T04:55:54.087Z,16.7
2022-08-27T05:00:55.362Z,16.7
2022-08-27T05:05:57.126Z,16.71
2022-08-27T05:10:58.865Z,16.74
2022-08-27T05:16:00.857Z,16.78
2022-08-27T05:21:02.857Z,16.79
2022-08-27T05:26:04.134Z,16.79
2022-08-27T05:31:06.310Z,16.81
2022-08-27T05:36:08.222Z,16.84
2022-08-27T05:41:09.983Z,16.86
2022-08-27T05:46:11.935Z,16.86
2022-08-27T05:51:13.159Z,16.89
2022-08-27T05:56:14.356Z,16.92
2022-08-27T06:01:15.745Z,16.95
2022-08-27T06:06:17.021Z,16.98
2022-08-27T06:11:19.183Z,17
2022-08-27T06:16:20.599Z,17.03
2022-08-27T06:21:24.571Z,17.06
2022-08-27T06:26:24.220Z,17.08
2022-08-27T06:31:26.427Z,17.11
2022-08-27T06:36:28.337Z,17.12
2022-08-27T06:46:31.578Z,17.2
2022-08-27T06:51:33.327Z,17.27
2022-08-27T06:56:35.399Z,17.32
2022-08-27T07:01:36.976Z,17.37
2022-08-27T07:06:38.604Z,17.42
2022-08-27T07:11:40.749Z,17.48
2022-08-27T07:16:42.312Z,17.53
2022-08-27T07:21:44.005Z,17.57
2022-08-27T07:26:45.396Z,17.65
2022-08-27T07:31:47.525Z,17.73
2022-08-27T07:36:48.990Z,17.82
2022-08-27T07:41:50.949Z,17.95
2022-08-27T07:46:52.411Z,18.08
2022-08-27T07:51:54.413Z,18.17
2022-08-27T07:56:56.287Z,18.26
2022-08-27T08:01:58.180Z,18.41
2022-08-27T08:07:00.040Z,18.58
2022-08-27T08:12:01.542Z,18.81
2022-08-27T08:17:03.541Z,19.01
2022-08-27T08:22:06.126Z,19.27
2022-08-27T08:27:07.802Z,19.34
2022-08-27T08:32:08.538Z,19.57
2022-08-27T08:37:10.631Z,19.64
2022-08-27T08:42:11.807Z,19.9
2022-08-27T08:47:13.752Z,19.91
2022-08-27T08:52:18.260Z,19.99
2022-08-27T08:57:18.574Z,20
2022-08-27T09:02:18.374Z,20
2022-08-27T09:07:19.740Z,20.07
2022-08-27T09:12:20.906Z,20.12
2022-08-27T09:17:22.324Z,20.24
2022-08-27T09:22:23.601Z,20.28
2022-08-27T09:27:25.132Z,20.29
2022-08-27T09:32:26.895Z,20.19
2022-08-27T09:37:34.351Z,20.17
2022-08-27T09:42:30.259Z,20.17
2022-08-27T09:47:32.424Z,20.2
2022-08-27T09:52:35.836Z,20.19
2022-08-27T09:57:35.724Z,20.19
2022-08-27T10:02:37.150Z,20.24
2022-08-27T10:07:38.576Z,20.23
2022-08-27T10:12:40.343Z,20.2
2022-08-27T10:17:41.908Z,20.19
2022-08-27T10:22:43.908Z,20.34
2022-08-27T10:27:46.078Z,20.46
2022-08-27T10:32:51.802Z,20.83
2022-08-27T10:37:49.985Z,21.05
2022-08-27T10:42:52.097Z,21.12
2022-08-27T10:47:52.879Z,21.09
2022-08-27T10:52:54.970Z,21.46
2022-08-27T10:58:00.770Z,21.66
2022-08-27T11:02:57.479Z,21.82
2022-08-27T11:07:58.811Z,22.13
2022-08-27T11:13:00.899Z,22.24
2022-08-27T11:18:02.225Z,22.63
2022-08-27T11:23:04.269Z,22.92
2022-08-27T11:33:10.965Z,23.32
2022-08-27T11:53:14.627Z,23.69
2022-08-27T12:03:18.335Z,23.45
2022-08-27T12:08:20.323Z,23.3
2022-08-27T12:28:27.080Z,23.2
2022-08-27T12:43:32.534Z,23.28
2022-08-27T12:48:34.580Z,23.4
2022-08-27T12:53:35.825Z,23.42
2022-08-27T12:58:37.345Z,23.72
2022-08-27T13:03:39.349Z,23.86
2022-08-27T13:08:40.663Z,24
2022-08-27T13:13:42.569Z,24.16
2022-08-27T13:18:43.844Z,24.34
2022-08-27T13:23:45.426Z,24.24
2022-08-27T13:28:46.814Z,24.14
2022-08-27T13:33:48.412Z,24.29
2022-08-27T13:38:50.498Z,24.42
2022-08-27T13:43:54.781Z,24.45
2022-08-27T13:48:54.189Z,24.34
2022-08-27T13:53:55.850Z,23.9
2022-08-27T13:58:57.261Z,24.01
2022-08-27T14:03:59.151Z,24.09
2022-08-27T14:09:00.472Z,24.34
2022-08-27T14:14:11.672Z,24.25
2022-08-27T14:19:04.015Z,24.01
2022-08-27T14:24:05.763Z,23.95
2022-08-27T14:24:12.427Z,23.94
2022-08-27T14:29:13.656Z,23.77
2022-08-27T14:34:15.578Z,23.71
2022-08-27T14:39:17.672Z,23.59
2022-08-27T14:44:19.807Z,23.23
2022-08-27T14:49:20.993Z,23.19
2022-08-27T14:54:22.837Z,23.14
2022-08-27T14:59:24.508Z,23.05
2022-08-27T15:04:26.021Z,23.14
2022-08-27T15:09:27.702Z,23.01
2022-08-27T15:14:29.240Z,22.73
2022-08-27T15:19:30.658Z,22.55
2022-08-27T15:24:32.306Z,22.46
2022-08-27T15:29:33.763Z,22.46
2022-08-27T15:34:35.445Z,22.56
2022-08-27T15:39:36.582Z,22.69
2022-08-27T15:44:38.652Z,22.74
2022-08-27T15:49:39.947Z,22.68
2022-08-27T15:54:42.046Z,22.51
2022-08-27T15:59:43.755Z,22.32
2022-08-27T16:04:46.906Z,22.28
2022-08-27T16:09:46.925Z,22.18
2022-08-27T16:14:48.158Z,22.2
2022-08-27T16:19:49.685Z,22.13
2022-08-27T16:24:51.263Z,22.15
2022-08-27T16:29:52.698Z,22.09
2022-08-27T16:34:55.552Z,21.97
2022-08-27T16:39:56.867Z,21.89
2022-08-27T16:44:58.514Z,21.79
2022-08-27T16:50:00.212Z,21.66
2022-08-27T16:55:02.275Z,21.6
2022-08-27T17:00:03.838Z,21.55
2022-08-27T17:05:23.921Z,21.4
2022-08-27T17:10:06.358Z,21.3
2022-08-27T17:15:08.046Z,21.23
2022-08-27T17:20:10.130Z,21.12
2022-08-27T17:25:11.958Z,21.06
2022-08-27T17:30:13.415Z,20.97
2022-08-27T17:35:15.575Z,20.88
2022-08-27T17:40:17.679Z,20.71
2022-08-27T17:45:19.708Z,20.61
2022-08-27T17:50:21.255Z,20.53
2022-08-27T17:55:22.633Z,20.44
2022-08-27T18:00:24.394Z,20.33
2022-08-27T18:05:26.454Z,20.21
2022-08-27T18:10:27.639Z,20.08
2022-08-27T18:15:28.913Z,19.94
2022-08-27T18:20:30.400Z,19.81
2022-08-27T18:25:35.889Z,19.69
2022-08-27T18:30:33.031Z,19.6
2022-08-27T18:35:34.434Z,19.51
2022-08-27T18:40:36.248Z,19.45
2022-08-27T18:45:37.782Z,19.41
2022-08-27T18:50:39.749Z,19.36
2022-08-27T18:55:41.227Z,19.37
2022-08-27T19:00:43.014Z,19.35
2022-08-27T19:05:44.422Z,19.32
2022-08-27T19:10:45.692Z,19.32
2022-08-27T19:15:47.030Z,19.32
2022-08-27T19:20:48.360Z,19.32
2022-08-27T19:25:49.611Z,19.32
2022-08-27T19:30:50.919Z,19.31
2022-08-27T19:35:52.845Z,19.27
2022-08-27T19:40:54.250Z,19.23
2022-08-27T19:45:56.058Z,19.2
2022-08-27T19:50:57.757Z,19.16
2022-08-27T19:55:58.954Z,19.14
2022-08-27T20:01:00.581Z,19.1
2022-08-27T20:06:02.759Z,19.09
2022-08-27T20:11:04.134Z,19.04
2022-08-27T20:16:06.158Z,19.01
2022-08-27T20:21:08.319Z,18.96
2022-08-27T20:26:09.775Z,18.94
2022-08-27T20:31:11.177Z,18.89
2022-08-27T20:36:13.282Z,18.83
2022-08-27T20:41:14.678Z,18.79
2022-08-27T20:46:16.090Z,18.74
2022-08-27T20:51:17.646Z,18.68
2022-08-27T20:56:19.609Z,18.62
2022-08-27T21:01:21.111Z,18.58
2022-08-27T21:06:26.283Z,18.53
2022-08-27T21:11:23.983Z,18.52
2022-08-27T21:16:26.011Z,18.48
2022-08-27T21:21:28.100Z,18.46
2022-08-27T21:26:29.610Z,18.46
2022-08-27T21:31:31.306Z,18.45
2022-08-27T21:36:33.112Z,18.45
2022-08-27T21:41:37.388Z,18.44
2022-08-27T21:46:36.038Z,18.42
2022-08-27T21:51:37.726Z,18.4
2022-08-27T21:56:39.417Z,18.37
2022-08-27T22:11:58.738Z,18.24
2022-08-27T22:16:45.530Z,18.12
2022-08-27T22:21:47.607Z,18.07
2022-08-27T22:26:49.302Z,17.93
2022-08-27T22:31:51.026Z,17.86
2022-08-27T22:36:52.285Z,17.79
2022-08-27T22:41:54.037Z,17.73
2022-08-27T22:46:55.445Z,17.66
2022-08-27T22:51:56.728Z,17.58
2022-08-27T22:56:57.988Z,17.53
2022-08-27T23:01:59.446Z,17.46
2022-08-27T23:07:01.548Z,17.45
2022-08-27T23:12:02.880Z,17.41
2022-08-27T23:17:04.662Z,17.35
2022-08-27T23:22:06.466Z,17.32
2022-08-27T23:27:07.790Z,17.29
2022-08-27T23:32:09.031Z,17.25
2022-08-27T23:37:10.658Z,17.24
2022-08-27T23:42:12.239Z,17.2
2022-08-27T23:47:13.750Z,17.16
2022-08-27T23:52:14.954Z,17.15
2022-08-27T23:57:16.538Z,17.12
